Terminal Aerodrome Forecast
Issued by NWS

Current Version | Previous Version | Text Only | Print | Product List | Glossary On
Versions: 1 2 3 4 5 6 7 8 9 10 11 12 13
000
FTUS45 KVEF 231100
TAFVGT
TAF
KVGT 231120Z 2312/2412 33006KT P6SM BKN250
     FM231900 15006KT P6SM FEW250
     FM240200 VRB05KT P6SM SKC=

USA.gov is the U.S. government's official web portal to all federal, state and local government web resources and services.